Time;durP1;ratioP1;P1;durP2;ratioP2;P2;SDS_P1;SDS_P2;PMS_P1;PMS_P2;Temp;Humidity;BMP_temperature;BMP_pressure;BME280_temperature;BME280_humidity;BME280_pressure;Samples;Min_cycle;Max_cycle;Signal;HPM_P1;HPM_P2
2023/02/17 00:01:23;;;;;;;15.90;9.60;;;;;;;1.92;61.59;100565.90;107622;1262;71801;-82
2023/02/17 00:03:51;;;;;;;17.20;9.90;;;;;;;1.94;61.82;100560.23;107679;1257;60802;-82
2023/02/17 00:06:19;;;;;;;16.30;9.60;;;;;;;1.98;61.96;100561.97;107662;1259;61491;-82
2023/02/17 00:08:53;;;;;;;16.40;10.00;;;;;;;2.01;61.99;100559.80;107641;1262;73847;-82
2023/02/17 00:11:21;;;;;;;17.20;10.40;;;;;;;2.01;61.92;100557.80;107663;1257;71902;-81
2023/02/17 00:13:50;;;;;;;19.10;10.90;;;;;;;2.02;61.96;100559.83;107589;1259;73759;-81
2023/02/17 00:16:18;;;;;;;17.30;10.50;;;;;;;2.06;62.07;100561.30;107539;1259;61117;-81
2023/02/17 00:18:46;;;;;;;17.20;10.70;;;;;;;2.11;62.33;100560.49;107569;1256;61085;-82
2023/02/17 00:21:19;;;;;;;17.40;10.70;;;;;;;2.17;61.93;100556.85;107834;1256;75513;-81
2023/02/17 00:23:47;;;;;;;;;;;;;;;2.21;62.05;100557.59;107875;1257;72788;-81
2023/02/17 00:26:17;;;;;;;15.50;10.10;;;;;;;2.25;62.13;100556.52;107823;1262;71076;-83
2023/02/17 00:28:46;;;;;;;18.70;10.60;;;;;;;2.28;62.24;100553.40;107641;1258;61243;-81
2023/02/17 00:31:24;;;;;;;17.30;10.70;;;;;;;2.34;62.09;100549.56;107551;1260;154765;-82
2023/02/17 00:33:54;;;;;;;19.40;11.30;;;;;;;2.40;62.23;100541.73;107630;1258;74003;-81
2023/02/17 00:36:21;;;;;;;16.20;10.20;;;;;;;2.42;62.13;100535.00;107663;1259;71740;-81
2023/02/17 00:38:48;;;;;;;21.90;11.40;;;;;;;2.41;61.95;100533.10;107652;1257;73465;-82
2023/02/17 00:41:16;;;;;;;17.60;10.00;;;;;;;2.40;62.01;100527.77;107676;1260;61226;-81
2023/02/17 00:43:43;;;;;;;21.40;10.80;;;;;;;2.40;62.05;100516.41;107713;1257;61169;-82
2023/02/17 00:46:10;;;;;;;17.60;10.10;;;;;;;2.38;62.09;100513.88;107592;1259;75608;-81
2023/02/17 00:48:37;;;;;;;18.70;10.30;;;;;;;2.36;61.93;100511.65;107519;1257;73618;-80
2023/02/17 00:51:04;;;;;;;15.70;10.20;;;;;;;2.36;62.10;100516.27;107552;1259;73384;-80
2023/02/17 00:53:34;;;;;;;17.10;10.70;;;;;;;2.37;62.20;100511.85;107452;1258;61090;-82
2023/02/17 00:56:01;;;;;;;19.30;10.60;;;;;;;2.35;62.13;100511.72;107587;1258;61193;-82
2023/02/17 00:58:32;;;;;;;19.70;11.20;;;;;;;2.33;61.99;100515.36;108333;1259;74681;-82
2023/02/17 01:00:59;;;;;;;18.10;10.10;;;;;;;2.31;62.20;100521.91;107578;1261;72424;-82
2023/02/17 01:03:26;;;;;;;16.40;9.70;;;;;;;2.32;62.21;100517.98;107587;1259;74045;-82
2023/02/17 01:05:53;;;;;;;18.30;10.80;;;;;;;2.32;62.17;100515.61;107573;1260;61099;-81
2023/02/17 01:08:20;;;;;;;17.70;9.80;;;;;;;2.32;62.38;100512.08;107534;1258;61100;-80
2023/02/17 01:10:47;;;;;;;14.70;9.10;;;;;;;2.32;62.47;100506.48;107614;1257;75864;-81
2023/02/17 01:13:15;;;;;;;15.40;9.90;;;;;;;2.34;62.54;100506.58;107612;1257;72192;-83
2023/02/17 01:15:44;;;;;;;16.60;10.10;;;;;;;2.41;62.50;100506.36;107666;1258;70924;-81
2023/02/17 01:18:14;;;;;;;18.70;10.60;;;;;;;2.50;62.50;100500.40;107568;1256;61123;-83
2023/02/17 01:20:42;;;;;;;17.20;10.70;;;;;;;2.61;62.52;100497.54;107841;1261;61455;-82
2023/02/17 01:23:10;;;;;;;17.70;10.50;;;;;;;2.71;62.30;100491.11;107676;1259;75578;-82
2023/02/17 01:25:42;;;;;;;18.30;10.50;;;;;;;2.79;62.25;100489.23;107655;1258;73045;-82
2023/02/17 01:28:14;;;;;;;17.90;10.50;;;;;;;2.85;62.06;100489.05;107584;1259;72705;-82
2023/02/17 01:30:41;;;;;;;20.30;10.30;;;;;;;2.92;62.02;100487.84;107486;1259;61220;-82
2023/02/17 01:33:08;;;;;;;17.00;9.80;;;;;;;2.97;62.04;100483.90;107557;1259;61103;-81
2023/02/17 01:35:36;;;;;;;15.60;10.40;;;;;;;3.05;61.81;100483.90;107595;1259;75112;-81
2023/02/17 01:38:04;;;;;;;18.60;10.30;;;;;;;3.14;61.63;100481.84;107566;1257;73264;-81
2023/02/17 01:40:32;;;;;;;18.10;10.80;;;;;;;3.22;61.57;100478.92;107514;1259;72438;-81
2023/02/17 01:42:59;;;;;;;17.80;10.60;;;;;;;3.28;61.46;100472.05;107551;1259;61545;-81
2023/02/17 01:45:30;;;;;;;15.80;10.00;;;;;;;3.32;61.11;100472.81;107576;1261;61127;-81
2023/02/17 01:48:04;;;;;;;17.40;10.00;;;;;;;3.34;61.03;100471.94;107560;1259;75745;-81
2023/02/17 01:50:35;;;;;;;17.00;10.40;;;;;;;3.38;60.84;100470.55;107552;1259;72926;-81
2023/02/17 01:53:02;;;;;;;15.30;9.50;;;;;;;3.40;60.77;100472.85;107597;1258;73073;-80
2023/02/17 01:55:30;;;;;;;16.80;10.00;;;;;;;3.42;60.52;100472.85;107630;1257;61124;-81
2023/02/17 01:57:56;;;;;;;16.40;10.20;;;;;;;3.43;60.52;100471.67;107491;1262;61240;-81
2023/02/17 02:00:25;;;;;;;14.70;9.40;;;;;;;3.43;60.53;100470.57;107592;1258;75374;-81
2023/02/17 02:02:52;;;;;;;18.30;10.30;;;;;;;3.43;60.47;100476.05;107630;1260;72374;-83
2023/02/17 02:05:19;;;;;;;19.10;11.10;;;;;;;3.42;60.45;100471.06;107504;1260;71755;-82
2023/02/17 02:07:46;;;;;;;17.00;10.70;;;;;;;3.43;60.25;100473.63;107353;1258;61066;-82
2023/02/17 02:10:17;;;;;;;16.60;10.40;;;;;;;3.44;60.12;100471.90;107650;1259;61257;-82
2023/02/17 02:12:46;;;;;;;16.60;10.40;;;;;;;3.47;60.28;100477.13;107493;1259;74543;-82
2023/02/17 02:15:20;;;;;;;17.20;10.40;;;;;;;3.47;60.09;100479.42;107631;1259;71577;-82
2023/02/17 02:18:20;;;;;;;15.30;9.90;;;;;;;3.48;60.20;100479.71;107527;1259;73845;-82
2023/02/17 02:20:54;;;;;;;17.70;9.90;;;;;;;3.50;60.10;100484.27;107569;1257;61231;-81
2023/02/17 02:23:33;;;;;;;16.60;10.00;;;;;;;3.51;60.15;100483.34;107585;1257;61343;-81
2023/02/17 02:26:35;;;;;;;16.50;10.00;;;;;;;3.54;60.23;100483.90;107579;1258;74795;-81
2023/02/17 02:29:21;;;;;;;17.80;10.70;;;;;;;3.55;60.07;100476.70;107568;1259;73804;-81
2023/02/17 02:32:30;;;;;;;16.50;10.70;;;;;;;3.51;60.29;100475.76;107541;1259;74011;-81
2023/02/17 02:35:02;;;;;;;16.90;10.30;;;;;;;3.45;60.47;100470.96;107550;1257;61091;-81
2023/02/17 02:38:02;;;;;;;16.10;10.50;;;;;;;3.39;60.29;100467.79;107671;1257;61400;-81
2023/02/17 02:40:35;;;;;;;17.50;9.80;;;;;;;3.35;60.55;100468.05;107680;1257;74042;-81
2023/02/17 02:43:02;;;;;;;16.60;9.80;;;;;;;3.30;60.43;100465.86;107421;1257;73092;-81
2023/02/17 02:45:29;;;;;;;14.50;9.30;;;;;;;3.27;60.46;100465.85;107516;1258;71509;-81
2023/02/17 02:47:57;;;;;;;17.30;10.00;;;;;;;3.25;60.61;100464.61;107614;1258;61102;-81
2023/02/17 02:50:47;;;;;;;18.40;11.00;;;;;;;3.26;60.66;100466.34;107504;1260;61378;-81
2023/02/17 02:53:20;;;;;;;17.20;10.80;;;;;;;3.26;60.80;100469.04;107580;1259;74795;-81
2023/02/17 02:55:52;;;;;;;16.60;10.10;;;;;;;3.28;60.61;100469.42;107777;1257;73816;-81
2023/02/17 02:58:41;;;;;;;16.70;10.70;;;;;;;3.31;60.67;100469.08;107731;1260;72896;-82
2023/02/17 03:01:20;;;;;;;16.90;9.40;;;;;;;3.34;60.68;100472.31;107706;1259;61279;-82
2023/02/17 03:04:08;;;;;;;15.10;9.70;;;;;;;3.35;60.90;100477.35;107666;1262;61276;-82
2023/02/17 03:06:42;;;;;;;18.50;11.00;;;;;;;3.37;60.82;100481.90;107780;1258;75665;-80
2023/02/17 03:09:16;;;;;;;16.00;10.10;;;;;;;3.37;60.83;100487.30;107678;1258;73690;-82
2023/02/17 03:11:44;;;;;;;14.00;9.60;;;;;;;3.36;60.82;100484.83;107701;1258;71535;-81
2023/02/17 03:14:15;;;;;;;16.30;9.60;;;;;;;3.35;60.90;100486.09;107685;1263;61103;-82
2023/02/17 03:16:43;;;;;;;15.60;10.00;;;;;;;3.35;60.88;100487.13;107741;1259;61129;-81
2023/02/17 03:19:10;;;;;;;17.10;10.90;;;;;;;3.33;60.91;100484.35;107677;1259;75871;-82
2023/02/17 03:21:51;;;;;;;17.40;10.70;;;;;;;3.29;60.90;100484.80;107654;1257;73120;-82
2023/02/17 03:24:18;;;;;;;19.70;11.60;;;;;;;3.26;61.00;100483.70;107654;1260;73978;-82
2023/02/17 03:26:46;;;;;;;18.30;10.90;;;;;;;3.21;61.19;100483.10;107595;1259;62014;-80
2023/02/17 03:29:13;;;;;;;17.60;11.30;;;;;;;3.10;61.48;100485.66;107678;1258;60037;-84
2023/02/17 03:31:40;;;;;;;17.50;11.40;;;;;;;3.11;61.79;100485.84;107737;1259;74722;-84
2023/02/17 03:34:07;;;;;;;18.80;12.00;;;;;;;3.12;61.81;100486.10;107661;1259;73844;-83
2023/02/17 03:36:35;;;;;;;20.40;12.80;;;;;;;3.15;61.93;100487.02;107672;1259;73115;-82
2023/02/17 03:39:03;;;;;;;21.20;13.10;;;;;;;3.15;62.09;100489.21;107734;1257;61085;-82
2023/02/17 03:41:31;;;;;;;23.30;12.90;;;;;;;3.18;62.09;100486.65;107705;1259;61302;-83
2023/02/17 03:44:01;;;;;;;21.90;13.00;;;;;;;3.24;62.15;100487.23;107666;1258;75681;-81
2023/02/17 03:46:28;;;;;;;21.70;12.60;;;;;;;3.29;62.23;100486.72;107699;1260;72553;-82
2023/02/17 03:48:55;;;;;;;24.70;13.50;;;;;;;3.37;62.18;100483.71;107738;1259;73769;-83
2023/02/17 03:51:23;;;;;;;19.40;12.70;;;;;;;3.43;62.17;100479.33;107715;1257;61504;-82
2023/02/17 03:53:51;;;;;;;20.40;13.00;;;;;;;3.49;62.21;100477.75;107749;1260;61116;-82
2023/02/17 03:56:18;;;;;;;22.90;13.00;;;;;;;3.52;62.08;100478.63;107664;1257;74474;-82
2023/02/17 03:58:45;;;;;;;21.90;13.40;;;;;;;3.54;61.95;100482.41;107720;1260;72651;-81
2023/02/17 04:01:16;;;;;;;19.80;12.70;;;;;;;3.59;61.99;100487.04;107798;1262;73542;-83
2023/02/17 04:03:43;;;;;;;20.00;12.40;;;;;;;3.64;61.90;100484.82;107714;1258;60952;-83
2023/02/17 04:06:11;;;;;;;23.10;13.60;;;;;;;3.68;61.69;100486.46;107736;1258;61106;-82
2023/02/17 04:08:43;;;;;;;22.60;13.80;;;;;;;3.73;61.82;100483.14;107652;1259;75383;-83
2023/02/17 04:11:51;;;;;;;22.40;13.60;;;;;;;3.76;61.56;100487.14;107718;1258;71865;-83
2023/02/17 04:14:18;;;;;;;24.40;14.60;;;;;;;3.76;61.46;100488.48;107773;1257;74005;-83
2023/02/17 04:16:46;;;;;;;23.50;14.10;;;;;;;3.77;61.24;100488.19;107765;1258;62288;-83
2023/02/17 04:19:14;;;;;;;24.50;15.20;;;;;;;3.73;61.17;100488.38;107830;1257;61117;-84
2023/02/17 04:21:42;;;;;;;29.70;17.90;;;;;;;3.72;60.99;100490.70;107793;1258;75173;-83
2023/02/17 04:24:09;;;;;;;26.00;15.80;;;;;;;3.72;61.04;100487.77;107827;1258;72353;-83
2023/02/17 04:26:36;;;;;;;27.00;17.40;;;;;;;3.72;60.96;100492.50;107757;1260;73431;-83
2023/02/17 04:29:03;;;;;;;33.20;18.40;;;;;;;3.70;60.92;100495.30;107778;1259;61190;-83
2023/02/17 04:31:30;;;;;;;31.60;18.00;;;;;;;3.69;60.84;100495.36;107780;1257;61117;-82
2023/02/17 04:33:58;;;;;;;36.00;20.90;;;;;;;3.67;60.93;100496.25;107764;1262;74663;-82
2023/02/17 04:36:25;;;;;;;41.10;22.70;;;;;;;3.66;60.80;100493.05;107751;1260;72984;-83
2023/02/17 04:38:52;;;;;;;37.40;19.70;;;;;;;3.63;60.61;100489.98;107718;1262;73667;-82
2023/02/17 04:41:19;;;;;;;32.50;18.40;;;;;;;3.58;60.70;100487.79;107840;1258;60484;-82
2023/02/17 04:43:48;;;;;;;36.00;19.10;;;;;;;3.52;60.61;100488.46;107730;1260;61152;-82
2023/02/17 04:46:18;;;;;;;33.10;18.90;;;;;;;3.52;60.79;100492.36;107917;1257;74629;-82
2023/02/17 04:48:47;;;;;;;35.10;19.40;;;;;;;3.50;60.66;100496.12;107737;1259;72772;-83
2023/02/17 04:51:16;;;;;;;34.10;19.50;;;;;;;3.50;60.59;100498.75;107800;1258;71194;-83
2023/02/17 04:53:44;;;;;;;29.90;18.40;;;;;;;3.52;60.78;100496.18;107735;1262;61134;-83
2023/02/17 04:56:13;;;;;;;30.40;18.10;;;;;;;3.67;60.36;100495.90;107725;1258;61298;-83
2023/02/17 04:58:40;;;;;;;27.40;16.10;;;;;;;3.74;60.36;100494.58;107802;1260;76434;-82
2023/02/17 05:01:07;;;;;;;27.80;16.50;;;;;;;3.72;60.31;100495.83;107818;1262;70379;-83
2023/02/17 05:03:34;;;;;;;29.70;18.30;;;;;;;3.69;60.32;100498.16;107745;1257;73520;-82
2023/02/17 05:06:04;;;;;;;35.60;21.10;;;;;;;3.67;60.39;100500.48;107766;1259;61162;-83
2023/02/17 05:08:31;;;;;;;36.00;21.70;;;;;;;3.69;60.46;100503.07;107752;1261;60633;-81
2023/02/17 05:10:58;;;;;;;36.10;21.80;;;;;;;3.72;60.57;100505.25;107724;1262;73817;-81
2023/02/17 05:13:26;;;;;;;42.00;23.00;;;;;;;3.64;60.82;100508.92;107810;1257;72643;-84
2023/02/17 05:15:56;;;;;;;41.20;22.50;;;;;;;3.62;60.89;100509.58;107784;1262;71731;-83
2023/02/17 05:18:23;;;;;;;37.60;22.10;;;;;;;3.63;60.91;100513.92;107757;1258;61387;-82
2023/02/17 05:20:50;;;;;;;38.00;23.70;;;;;;;3.63;60.87;100515.72;107695;1258;61527;-81
2023/02/17 05:23:18;;;;;;;37.80;23.40;;;;;;;3.64;61.00;100515.26;107671;1260;75167;-82
2023/02/17 05:25:44;;;;;;;42.40;23.70;;;;;;;3.66;61.00;100517.56;107758;1260;73688;-82
2023/02/17 05:28:11;;;;;;;43.70;25.60;;;;;;;3.68;60.80;100525.02;107768;1260;72622;-82
2023/02/17 05:30:38;;;;;;;41.70;24.80;;;;;;;3.68;60.82;100529.25;107732;1259;61135;-83
2023/02/17 05:33:07;;;;;;;41.70;23.90;;;;;;;3.69;60.91;100531.73;107753;1258;61103;-82
2023/02/17 05:35:34;;;;;;;37.50;23.80;;;;;;;3.71;60.79;100532.23;107785;1259;75658;-82
2023/02/17 05:38:02;;;;;;;41.50;23.70;;;;;;;3.70;60.53;100531.43;107772;1260;72520;-82
2023/02/17 05:40:30;;;;;;;43.60;24.80;;;;;;;3.69;60.60;100530.51;107650;1257;73897;-82
2023/02/17 05:42:58;;;;;;;49.50;26.30;;;;;;;3.67;60.40;100534.45;107658;1262;61113;-83
2023/02/17 05:45:25;;;;;;;53.10;28.00;;;;;;;3.65;60.51;100534.92;107790;1262;61193;-82
2023/02/17 05:47:51;;;;;;;47.40;27.00;;;;;;;3.64;60.62;100537.98;107712;1259;74554;-82
2023/02/17 05:50:19;;;;;;;47.00;26.10;;;;;;;3.59;60.49;100544.05;107709;1260;73124;-82
2023/02/17 05:52:48;;;;;;;48.50;27.40;;;;;;;3.59;60.72;100546.98;107708;1260;70800;-82
2023/02/17 05:55:16;;;;;;;46.40;28.00;;;;;;;3.61;60.70;100553.46;107653;1259;61094;-83
2023/02/17 05:57:44;;;;;;;52.20;28.80;;;;;;;3.63;60.86;100555.38;107735;1260;61219;-82
2023/02/17 06:00:12;;;;;;;48.80;28.60;;;;;;;3.63;60.91;100556.91;107780;1258;74097;-81
2023/02/17 06:02:39;;;;;;;47.70;27.40;;;;;;;3.66;60.98;100559.73;107809;1261;72799;-82
2023/02/17 06:05:07;;;;;;;47.40;27.10;;;;;;;3.67;60.93;100559.25;107644;1258;71148;-82
2023/02/17 06:07:35;;;;;;;48.60;27.40;;;;;;;3.68;61.06;100562.01;107740;1257;61458;-82
2023/02/17 06:10:02;;;;;;;47.20;27.90;;;;;;;3.70;60.97;100560.20;107736;1262;61381;-81
2023/02/17 06:12:29;;;;;;;59.40;34.30;;;;;;;3.71;61.18;100564.42;107805;1258;73901;-84
2023/02/17 06:14:56;;;;;;;79.30;42.00;;;;;;;3.68;61.10;100562.21;107662;1260;71936;-82
2023/02/17 06:17:24;;;;;;;64.10;35.30;;;;;;;3.64;61.18;100564.52;107701;1258;73834;-81
2023/02/17 06:19:51;;;;;;;57.90;33.00;;;;;;;3.62;61.28;100567.67;107600;1265;61085;-81
2023/02/17 06:22:18;;;;;;;54.80;32.40;;;;;;;3.60;61.48;100572.29;107729;1259;61129;-83
2023/02/17 06:24:45;;;;;;;56.50;33.40;;;;;;;3.61;61.54;100574.67;107708;1258;74799;-82
2023/02/17 06:27:12;;;;;;;54.80;31.80;;;;;;;3.61;61.54;100578.13;107746;1257;73610;-83
2023/02/17 06:29:39;;;;;;;47.80;28.70;;;;;;;3.61;61.69;100580.24;107705;1261;71654;-81
2023/02/17 06:32:07;;;;;;;48.00;26.90;;;;;;;3.63;61.77;100582.39;107745;1257;61860;-82
2023/02/17 06:34:35;;;;;;;37.90;24.20;;;;;;;3.61;61.74;100587.11;107666;1263;61254;-82
2023/02/17 06:37:02;;;;;;;35.40;21.00;;;;;;;3.59;61.80;100592.57;107698;1263;74071;-83
2023/02/17 06:39:30;;;;;;;30.30;19.30;;;;;;;3.58;61.89;100593.38;107715;1262;72114;-81
2023/02/17 06:41:57;;;;;;;32.30;19.50;;;;;;;3.56;62.04;100595.88;107712;1258;73328;-82
2023/02/17 06:44:24;;;;;;;34.80;21.30;;;;;;;3.56;62.09;100598.23;107736;1258;61120;-83
2023/02/17 06:46:51;;;;;;;36.50;23.00;;;;;;;3.54;62.16;100599.81;107718;1262;61124;-81
2023/02/17 06:49:18;;;;;;;35.30;21.20;;;;;;;3.50;62.24;100598.42;107713;1263;73933;-82
2023/02/17 06:51:45;;;;;;;33.80;20.30;;;;;;;3.47;62.29;100600.48;107608;1262;72446;-83
2023/02/17 06:54:12;;;;;;;23.60;15.20;;;;;;;3.44;62.55;100606.95;107681;1261;72656;-83
2023/02/17 06:56:39;;;;;;;22.00;14.20;;;;;;;3.45;62.61;100606.23;107606;1260;61247;-81
2023/02/17 06:59:06;;;;;;;22.70;14.70;;;;;;;3.45;62.62;100605.25;107696;1263;61565;-81
2023/02/17 07:01:34;;;;;;;24.30;14.80;;;;;;;3.49;62.73;100603.50;107707;1259;74657;-81
2023/02/17 07:04:01;;;;;;;23.50;13.80;;;;;;;3.54;62.69;100609.36;107652;1264;72843;-81
2023/02/17 07:06:29;;;;;;;28.60;17.10;;;;;;;3.54;62.87;100611.48;107745;1262;72595;-79
2023/02/17 07:08:56;;;;;;;30.00;19.00;;;;;;;3.51;62.78;100611.52;107771;1258;61250;-82
2023/02/17 07:11:23;;;;;;;33.40;19.40;;;;;;;3.49;62.92;100614.55;107719;1258;60650;-82
2023/02/17 07:13:50;;;;;;;28.10;19.00;;;;;;;3.49;62.95;100616.17;107700;1262;74750;-81
2023/02/17 07:16:19;;;;;;;28.80;19.00;;;;;;;3.53;63.05;100614.45;107746;1258;71866;-81
2023/02/17 07:18:50;;;;;;;25.70;16.60;;;;;;;3.58;62.99;100613.42;107606;1262;73784;-81
2023/02/17 07:21:18;;;;;;;25.00;15.60;;;;;;;3.61;62.99;100618.48;107773;1257;61100;-81
2023/02/17 07:23:45;;;;;;;24.20;15.40;;;;;;;3.63;63.03;100623.20;107747;1258;61295;-81
2023/02/17 07:26:12;;;;;;;21.10;14.00;;;;;;;3.63;63.04;100622.46;107776;1257;73366;-83
2023/02/17 07:28:39;;;;;;;18.30;11.80;;;;;;;3.62;62.96;100622.70;107731;1258;72343;-82
2023/02/17 07:31:10;;;;;;;17.10;11.60;;;;;;;3.60;63.00;100622.15;92769;1262;10002289;-81
2023/02/17 07:33:38;;;;;;;19.90;11.90;;;;;;;3.56;62.83;100622.69;92550;1265;10001938;-82
2023/02/17 07:36:11;;;;;;;;;;;;;;;3.52;62.83;100627.94;107430;1264;74642;-80
2023/02/17 07:38:41;;;;;;;19.30;11.00;;;;;;;3.50;62.86;100627.55;107943;1265;73507;-81
2023/02/17 07:41:18;;;;;;;18.90;9.90;;;;;;;3.47;62.92;100631.36;107444;1261;73303;-80
2023/02/17 07:43:46;;;;;;;17.30;10.20;;;;;;;3.49;62.98;100628.36;107502;1260;61078;-82
2023/02/17 07:46:15;;;;;;;14.40;8.80;;;;;;;3.52;62.87;100633.95;107407;1259;61546;-81
2023/02/17 07:48:43;;;;;;;17.70;10.30;;;;;;;3.54;62.75;100632.40;107581;1263;74892;-80
2023/02/17 07:51:12;;;;;;;16.30;10.40;;;;;;;3.57;62.74;100635.61;107515;1261;74060;-82
2023/02/17 07:53:39;;;;;;;17.20;10.20;;;;;;;3.59;62.72;100634.42;107422;1261;72636;-82
2023/02/17 07:56:08;;;;;;;20.40;11.80;;;;;;;3.63;62.73;100634.88;107393;1267;61215;-82
2023/02/17 07:58:39;;;;;;;19.60;12.10;;;;;;;3.67;62.71;100634.02;107475;1261;62952;-81
2023/02/17 08:01:08;;;;;;;18.10;11.30;;;;;;;3.71;62.70;100636.33;107401;1261;74393;-81
2023/02/17 08:03:35;;;;;;;17.00;11.00;;;;;;;3.77;62.63;100640.81;107504;1257;73671;-82
2023/02/17 08:06:02;;;;;;;16.30;11.10;;;;;;;3.84;62.57;100644.96;107678;1258;70865;-82
2023/02/17 08:14:08;;;;;;;18.80;11.20;;;;;;;3.82;62.14;100648.54;107582;1257;75889;-80
2023/02/17 08:16:43;;;;;;;19.70;10.80;;;;;;;3.86;62.16;100653.73;107624;1257;73537;-80
2023/02/17 08:19:11;;;;;;;16.30;9.60;;;;;;;3.95;62.24;100654.67;107675;1261;73712;-80
2023/02/17 08:21:43;;;;;;;18.30;11.80;;;;;;;4.03;62.02;100653.05;107592;1263;62474;-81
2023/02/17 08:24:20;;;;;;;17.20;11.00;;;;;;;4.07;61.92;100652.70;107630;1257;61387;-80
2023/02/17 08:26:55;;;;;;;15.80;10.10;;;;;;;4.09;61.89;100658.91;107615;1257;75645;-80
2023/02/17 08:29:37;;;;;;;17.10;11.10;;;;;;;4.13;61.75;100660.14;107705;1263;72475;-80
2023/02/17 08:32:15;;;;;;;17.90;11.20;;;;;;;4.18;61.67;100665.05;107805;1257;73970;-81
2023/02/17 08:34:50;;;;;;;18.00;11.60;;;;;;;4.24;61.43;100668.80;107706;1257;62865;-81
2023/02/17 08:40:43;;;;;;;18.10;11.40;;;;;;;4.31;60.93;100674.16;107700;1258;72836;-82
2023/02/17 08:43:10;;;;;;;18.50;12.00;;;;;;;4.36;60.98;100672.38;107793;1257;73011;-81
2023/02/17 08:45:37;;;;;;;18.10;11.80;;;;;;;4.46;60.65;100668.73;107766;1257;71240;-81
2023/02/17 08:48:04;;;;;;;17.30;11.20;;;;;;;4.55;60.46;100670.52;107835;1257;62649;-81
2023/02/17 08:50:32;;;;;;;22.00;12.70;;;;;;;4.63;60.25;100671.15;107810;1258;59841;-81
2023/02/17 08:52:59;;;;;;;19.40;12.20;;;;;;;4.67;60.12;100673.19;107828;1257;75953;-81
2023/02/17 08:55:26;;;;;;;19.10;12.40;;;;;;;4.70;59.83;100677.04;107834;1262;70606;-81
2023/02/17 08:57:53;;;;;;;18.40;11.90;;;;;;;4.66;59.78;100681.95;107745;1262;73693;-81
2023/02/17 09:00:20;;;;;;;19.60;12.00;;;;;;;4.69;59.73;100680.67;107736;1257;62407;-83
2023/02/17 09:02:48;;;;;;;19.10;13.20;;;;;;;4.70;59.54;100684.80;107786;1257;61159;-80
2023/02/17 09:05:15;;;;;;;18.80;12.30;;;;;;;4.66;59.38;100684.10;107838;1257;74993;-81
2023/02/17 09:07:42;;;;;;;20.90;12.80;;;;;;;4.67;59.43;100682.95;107815;1257;72858;-80
2023/02/17 09:10:09;;;;;;;20.40;12.90;;;;;;;4.65;59.44;100682.13;107858;1258;72785;-81
2023/02/17 09:12:37;;;;;;;19.90;13.00;;;;;;;4.64;59.37;100680.70;107618;1257;61148;-80
2023/02/17 09:15:05;;;;;;;21.60;13.70;;;;;;;4.66;59.39;100680.08;107814;1257;61158;-81
2023/02/17 09:17:32;;;;;;;21.20;13.80;;;;;;;4.72;59.36;100677.67;107827;1257;74838;-81
2023/02/17 09:20:00;;;;;;;19.10;11.40;;;;;;;4.81;59.28;100681.11;107794;1257;72654;-81
2023/02/17 09:22:27;;;;;;;21.90;13.80;;;;;;;4.87;59.08;100679.42;107823;1257;73427;-82
2023/02/17 09:25:00;;;;;;;18.50;12.10;;;;;;;4.86;58.84;100683.95;107801;1257;61291;-79
2023/02/17 09:27:27;;;;;;;21.60;13.30;;;;;;;4.85;58.86;100687.63;107780;1257;61237;-80
2023/02/17 09:29:55;;;;;;;20.00;13.20;;;;;;;4.84;58.79;100691.95;107784;1257;75068;-81
2023/02/17 09:32:22;;;;;;;22.30;14.30;;;;;;;4.86;58.79;100692.45;107839;1257;73746;-80
2023/02/17 09:34:49;;;;;;;20.10;14.10;;;;;;;4.87;58.69;100694.09;107820;1257;72630;-82
2023/02/17 09:37:19;;;;;;;22.10;14.40;;;;;;;4.91;58.63;100690.48;107837;1257;61079;-81
2023/02/17 09:39:47;;;;;;;20.10;14.80;;;;;;;4.91;58.54;100693.61;107818;1257;61050;-81
2023/02/17 09:42:22;;;;;;;22.70;14.90;;;;;;;4.91;58.43;100694.92;107853;1257;75765;-82
2023/02/17 09:44:53;;;;;;;20.30;14.10;;;;;;;4.95;58.39;100695.98;107831;1257;71769;-81
2023/02/17 09:47:23;;;;;;;22.50;13.80;;;;;;;5.03;58.35;100693.96;107810;1257;73109;-80
2023/02/17 09:50:01;;;;;;;22.50;14.50;;;;;;;5.09;58.23;100693.51;107846;1257;61090;-81
2023/02/17 09:52:54;;;;;;;20.40;13.70;;;;;;;5.15;58.02;100691.33;107863;1257;61104;-82
2023/02/17 09:55:22;;;;;;;23.70;15.30;;;;;;;5.18;57.91;100693.02;107889;1257;74858;-81
2023/02/17 09:58:10;;;;;;;21.30;14.70;;;;;;;5.21;57.81;100693.31;107821;1258;72953;-81
2023/02/17 10:00:42;;;;;;;22.30;14.70;;;;;;;5.27;57.74;100689.91;107849;1257;71778;-81
2023/02/17 10:03:15;;;;;;;24.10;15.60;;;;;;;5.35;57.67;100686.86;107748;1257;61122;-81
2023/02/17 10:06:03;;;;;;;21.90;14.20;;;;;;;5.43;57.55;100685.92;107820;1257;61129;-83
2023/02/17 10:08:35;;;;;;;20.20;13.90;;;;;;;5.48;57.27;100686.01;107697;1257;74785;-82
2023/02/17 10:11:10;;;;;;;24.10;15.60;;;;;;;5.48;57.21;100688.23;107851;1257;73741;-82
2023/02/17 10:13:37;;;;;;;21.00;14.10;;;;;;;5.55;57.16;100688.78;107756;1257;71744;-82
2023/02/17 10:16:06;;;;;;;20.90;13.60;;;;;;;5.63;57.04;100693.34;107819;1259;61257;-83
2023/02/17 10:18:37;;;;;;;20.60;13.00;;;;;;;5.68;56.80;100691.25;107736;1259;61273;-83
2023/02/17 10:21:07;;;;;;;19.00;12.70;;;;;;;5.66;56.60;100689.55;107756;1259;75683;-82
2023/02/17 10:23:35;;;;;;;16.30;11.30;;;;;;;5.63;56.52;100688.49;107757;1257;73131;-82
2023/02/17 10:26:19;;;;;;;18.70;11.50;;;;;;;5.60;56.44;100687.70;107807;1257;72865;-82
2023/02/17 10:28:49;;;;;;;19.80;12.20;;;;;;;5.56;56.36;100688.67;107820;1258;61507;-81
2023/02/17 10:31:56;;;;;;;17.00;12.10;;;;;;;5.54;56.32;100685.45;107858;1257;61132;-82
2023/02/17 10:34:48;;;;;;;19.20;12.40;;;;;;;5.43;56.33;100684.17;107606;1257;73823;-81
2023/02/17 10:37:48;;;;;;;17.60;11.70;;;;;;;5.32;56.49;100684.97;107839;1257;73059;-83
2023/02/17 10:40:20;;;;;;;18.60;11.30;;;;;;;5.31;56.54;100682.76;107821;1257;71782;-84
2023/02/17 10:42:54;;;;;;;;;;;;;;;5.29;56.64;100683.13;107858;1257;61148;-80
2023/02/17 10:45:31;;;;;;;18.90;12.00;;;;;;;5.29;56.71;100683.14;107851;1257;61250;-82
2023/02/17 10:48:10;;;;;;;18.00;11.60;;;;;;;5.28;56.74;100684.16;107859;1257;74230;-82
2023/02/17 10:50:39;;;;;;;18.70;12.30;;;;;;;5.30;56.73;100685.95;107823;1257;72074;-82
2023/02/17 10:53:20;;;;;;;19.50;13.30;;;;;;;5.33;56.77;100688.75;107891;1257;73918;-81
2023/02/17 10:56:01;;;;;;;17.90;11.90;;;;;;;5.38;56.71;100689.31;107829;1257;62567;-82
2023/02/17 10:58:40;;;;;;;20.50;13.70;;;;;;;5.36;56.46;100685.27;107846;1257;61111;-83
2023/02/17 11:01:07;;;;;;;18.40;12.20;;;;;;;5.32;56.55;100686.39;107845;1262;74797;-84
2023/02/17 11:03:36;;;;;;;19.60;12.20;;;;;;;5.34;56.49;100684.64;107655;1257;72236;-83
2023/02/17 11:06:18;;;;;;;17.30;12.20;;;;;;;5.33;56.57;100684.84;107811;1257;72894;-83
2023/02/17 11:09:07;;;;;;;19.30;12.60;;;;;;;5.34;56.48;100687.77;107796;1262;61146;-84
2023/02/17 11:12:00;;;;;;;18.70;12.00;;;;;;;5.36;56.45;100688.23;107845;1257;60648;-83
2023/02/17 11:14:29;;;;;;;20.00;13.40;;;;;;;5.35;56.24;100690.25;107828;1257;73219;-82
2023/02/17 11:17:26;;;;;;;17.00;11.70;;;;;;;5.33;56.31;100691.82;107852;1257;72894;-83
2023/02/17 11:20:02;;;;;;;16.80;11.20;;;;;;;5.33;56.28;100692.27;107823;1261;72741;-83
2023/02/17 11:22:39;;;;;;;15.50;11.40;;;;;;;5.34;56.27;100688.30;107744;1257;61121;-82
2023/02/17 11:25:24;;;;;;;17.90;12.60;;;;;;;5.34;56.29;100682.63;107812;1262;61261;-81
2023/02/17 11:27:54;;;;;;;;;;;;;;;5.35;56.38;100682.71;107827;1257;74380;-80
2023/02/17 11:30:22;;;;;;;15.40;11.20;;;;;;;5.43;56.35;100683.44;107854;1257;73331;-82
2023/02/17 11:32:49;;;;;;;14.70;10.90;;;;;;;5.50;56.21;100683.33;107841;1260;72835;-82
2023/02/17 11:35:40;;;;;;;17.10;12.40;;;;;;;5.51;55.85;100685.94;107669;1257;62303;-82
2023/02/17 11:38:18;;;;;;;18.50;12.50;;;;;;;5.46;55.77;100686.52;107840;1262;61183;-81